Flight Track Log - Related Links

Times and Time Zones

All times are in EDT time to prevent confusion due to time zone crossing. See the JZA7655 flight status page for this flight to view local times or setup timezone preferences in your user account.

Time Position Orientation Groundspeed Altitude Reporting Facility
EDT Latitude Longitude Course Direction KTS MPH feet Rate Location/Type
Tue 05:18:19 PM 38.8167 -77.0333 330° Northwest 163 188 1,500  Level Potomac TRACON
Tue 05:19:19 PM 38.7500 -77.0333 180° South 214 246 4,200 2,684 Climbing Potomac TRACON
Tue 05:20:13 PM 38.7667 -77.0833 293° West 227 261 6,600 2,211 Climbing Potomac TRACON
Tue 05:21:13 PM 38.8167 -77.1500 314° West 287 330 8,400 2,100 Climbing Potomac TRACON
Tue 05:22:00 PM 39.3859 -77.3175 346° North  Level FlightAware Approximate
Tue 05:22:13 PM 38.8833 -77.2167 322° Northwest 288 331 10,800  Level Potomac TRACON
Tue 05:23:00 PM 39.4929 -77.3780 330° Northwest  Level FlightAware Approximate
Tue 05:23:07 PM 38.9333 -77.2833 314° West 288 331 12,800  Level Potomac TRACON
Tue 05:25:35 PM 39.0808 -77.4178 325° Northwest 290 334 17,000 1,263 Climbing Washington Center
Tue 05:26:36 PM 39.1808 -77.4231 358° North 310 357 17,200 1,033 Climbing Washington Center
Tue 05:27:37 PM 39.2828 -77.4311 356° North 343 395 19,100 1,983 Climbing Washington Center
Tue 05:28:34 PM 39.3828 -77.4361 358° North 352 405 21,100 1,613 Climbing Washington Center
Tue 05:29:36 PM 39.4806 -77.4442 356° North 352 405 22,300 1,328 Climbing Washington Center
Tue 05:30:36 PM 39.5806 -77.4519 357° North 352 405 23,800 1,174 Climbing Washington Center
Tue 05:31:54 PM 39.7239 -77.4544 359° North 379 436 25,000 514 Climbing New York Center
Tue 05:32:56 PM 39.8367 -77.4544 360° North 389 448 25,000  Level New York Center
Tue 05:33:54 PM 39.9578 -77.4497 North 411 473 25,000 300 Level New York Center
Tue 05:34:56 PM 40.0808 -77.4506 360° North 432 497 25,600 829 Climbing New York Center
Tue 05:35:57 PM 40.2144 -77.4472 North 441 507 26,700 1,059 Climbing New York Center
Tue 05:36:55 PM 40.3397 -77.4428 North 441 507 27,700 1,373 Climbing New York Center
Tue 05:37:55 PM 40.4544 -77.4403 North 429 494 29,400 1,190 Climbing New York Center
Tue 05:38:56 PM 40.5697 -77.4322 North 423 487 30,100 725 Climbing New York Center
Tue 05:39:26 PM 40.6325 -77.4067 17° North 422 486 30,500 652 Climbing Cleveland Center
Tue 05:40:28 PM 40.7469 -77.3625 16° North 430 495 31,100 581 Climbing Cleveland Center
Tue 05:41:30 PM 40.8625 -77.3181 16° North 434 499 31,700 581 Climbing Cleveland Center
Tue 05:42:32 PM 40.9781 -77.2733 16° North 436 502 32,300 634 Climbing Cleveland Center
Tue 05:43:33 PM 41.0944 -77.2275 17° North 437 503 33,000 341 Climbing Cleveland Center
Tue 05:44:35 PM 41.2353 -77.1728 16° North 442 509 33,000  Level Cleveland Center
Tue 05:45:37 PM 41.3539 -77.1278 16° North 445 512 33,000  Level Cleveland Center
Tue 05:46:39 PM 41.4714 -77.0817 16° North 445 512 33,000  Level Cleveland Center
Tue 05:48:32 PM 41.6872 -76.9961 16° North 442 509 33,000  Level Boston Center
Tue 05:49:35 PM 41.8161 -76.9447 17° North 436 502 33,000  Level Boston Center
Tue 05:50:37 PM 41.9200 -76.9047 16° North 436 502 33,000  Level Boston Center
Tue 05:51:37 PM 42.0467 -76.8525 17° North 436 502 33,000  Level Boston Center
Tue 05:52:38 PM 42.1619 -76.8069 16° North 436 502 33,000  Level Boston Center
Tue 05:53:41 PM 42.2769 -76.7603 17° North 436 502 33,000  Level Boston Center
Tue 05:54:42 PM 42.3906 -76.7142 17° North 434 499 33,000  Level Boston Center
Tue 05:55:43 PM 42.5297 -76.6575 17° North 435 501 33,000  Level Boston Center
Tue 05:56:46 PM 42.6456 -76.6117 16° North 435 501 33,000  Level Boston Center
Tue 05:57:47 PM 42.7608 -76.5639 17° North 436 502 33,000  Level Boston Center
Tue 05:58:47 PM 42.8800 -76.5136 17° North 435 501 33,000  Level Boston Center
Tue 05:59:51 PM 42.9953 -76.4667 17° North 433 498 33,000  Level Boston Center
Tue 06:00:51 PM 43.1103 -76.4189 17° North 433 498 33,000  Level Boston Center
Tue 06:01:52 PM 43.2264 -76.3706 17° North 433 498 33,000  Level Boston Center
Tue 06:02:53 PM 43.3400 -76.3239 17° North 430 495 33,000  Level Boston Center
Tue 06:03:56 PM 43.4556 -76.2761 17° North 430 495 33,000  Level Boston Center
Tue 06:04:57 PM 43.5700 -76.2261 18° North 430 495 33,000  Level Boston Center
Tue 06:05:57 PM 43.6847 -76.1786 17° North 430 495 33,000  Level Boston Center
Tue 06:06:58 PM 43.8225 -76.1194 17° North 430 495 33,000  Level Boston Center
Tue 06:08:02 PM 43.9381 -76.0703 17° North 430 495 33,000  Level Boston Center
Tue 06:09:02 PM 44.0431 -75.9839 31° Northeast 437 503 33,000 -545 Level Boston Center
Tue 06:10:03 PM 44.1483 -75.8911 32° Northeast 441 507 31,900 -1,328 Descending Boston Center
Tue 06:11:04 PM 44.2608 -75.7906 33° Northeast 475 547 30,300 -1,548 Descending Boston Center
Tue 06:12:07 PM 44.3778 -75.6864 32° Northeast 492 566 28,700 -1,548 Descending Boston Center
Tue 06:13:08 PM 44.4950 -75.5808 33° Northeast 500 575 27,100 -1,388 Descending Boston Center
Tue 06:14:08 PM 44.6017 -75.4850 33° Northeast 461 531 25,900 -823 Descending Boston Center
Tue 06:15:12 PM 44.7064 -75.3883 33° Northeast 456 525 25,400 -238 Descending Boston Center
Tue 06:16:14 PM 44.8167 -75.2667 38° Northeast 430 495 25,400 -246 Level Montreal Center
Tue 06:17:14 PM 44.9167 -75.1833 31° Northeast 440 506 24,900 -1,500 Descending Montreal Center
Tue 06:18:14 PM 45.0167 -75.0667 39° Northeast 440 506 22,400 -3,050 Descending Montreal Center
Tue 06:19:14 PM 45.1000 -74.9500 45° Northeast 430 495 18,800 -3,450 Descending Montreal Center
Tue 06:20:14 PM 45.1333 -74.7833 74° East 430 495 15,500 -3,300 Descending Montreal Center
Tue 06:21:14 PM 45.1667 -74.6167 74° East 410 472 12,200 -3,000 Descending Montreal Center
Tue 06:22:14 PM 45.1833 -74.4667 81° East 380 437 9,500 -1,950 Descending Montreal Center
Tue 06:23:14 PM 45.2167 -74.3500 68° East 300 345 8,300 -1,050 Descending Montreal Center
Tue 06:24:14 PM 45.2333 -74.2500 77° East 300 345 7,400 -1,050 Descending Montreal Center
Tue 06:25:14 PM 45.2667 -74.1333 68° East 290 334 6,200 -1,450 Descending Montreal Center
Tue 06:26:14 PM 45.2667 -74.0333 90° East 280 322 4,500 -1,150 Descending Montreal Center
Tue 06:27:14 PM 45.3000 -73.9500 60° Northeast 230 265 3,900 -850 Descending Montreal Center
Tue 06:28:14 PM 45.3500 -73.9000 35° Northeast 220 253 2,800 -1,150 Descending Montreal Center
Tue 06:29:14 PM 45.4000 -73.8167 49° Northeast 220 253 1,600 -1,050 Descending Montreal Center
Tue 06:30:14 PM 45.4333 -73.7667 46° Northeast 180 207 700 -349 Descending Montreal Center
Tue 06:33:32 PM 45.4500 -73.7500 35° Northeast 30 35 100 -182 Descending Montreal Center

Login

Don't have an account? Register now (free) for customized features, flight alerts, and more!